sensor_id;sensor_type;location;lat;lon;timestamp;P1;durP1;ratioP1;P2;durP2;ratioP2
70150;SDS011;57517;43.562;19.540;2023-05-14T00:02:17;11.35;;;7.60;;
70150;SDS011;57517;43.562;19.540;2023-05-14T00:04:42;10.55;;;7.43;;
70150;SDS011;57517;43.562;19.540;2023-05-14T00:07:08;10.77;;;6.80;;
70150;SDS011;57517;43.562;19.540;2023-05-14T00:09:34;8.30;;;5.93;;
70150;SDS011;57517;43.562;19.540;2023-05-14T00:12:00;9.80;;;5.90;;
70150;SDS011;57517;43.562;19.540;2023-05-14T00:14:25;8.32;;;5.63;;
70150;SDS011;57517;43.562;19.540;2023-05-14T00:16:51;14.00;;;6.60;;
70150;SDS011;57517;43.562;19.540;2023-05-14T00:19:17;10.20;;;6.20;;
70150;SDS011;57517;43.562;19.540;2023-05-14T00:21:43;11.77;;;7.47;;
70150;SDS011;57517;43.562;19.540;2023-05-14T00:24:08;13.90;;;8.32;;
70150;SDS011;57517;43.562;19.540;2023-05-14T00:26:34;11.63;;;7.25;;
70150;SDS011;57517;43.562;19.540;2023-05-14T00:29:00;9.55;;;7.10;;
70150;SDS011;57517;43.562;19.540;2023-05-14T00:31:26;9.05;;;6.40;;
70150;SDS011;57517;43.562;19.540;2023-05-14T00:33:51;8.27;;;6.00;;
70150;SDS011;57517;43.562;19.540;2023-05-14T00:36:17;11.02;;;6.43;;
70150;SDS011;57517;43.562;19.540;2023-05-14T00:38:43;10.55;;;6.53;;
70150;SDS011;57517;43.562;19.540;2023-05-14T00:41:09;11.07;;;5.93;;
70150;SDS011;57517;43.562;19.540;2023-05-14T00:43:35;8.93;;;7.07;;
70150;SDS011;57517;43.562;19.540;2023-05-14T00:46:00;11.65;;;7.30;;
70150;SDS011;57517;43.562;19.540;2023-05-14T00:48:26;9.95;;;6.05;;
70150;SDS011;57517;43.562;19.540;2023-05-14T00:50:52;12.25;;;7.53;;
70150;SDS011;57517;43.562;19.540;2023-05-14T00:53:18;8.77;;;5.65;;
70150;SDS011;57517;43.562;19.540;2023-05-14T00:55:45;8.27;;;5.72;;
70150;SDS011;57517;43.562;19.540;2023-05-14T00:58:12;11.90;;;6.22;;
70150;SDS011;57517;43.562;19.540;2023-05-14T01:00:39;9.07;;;6.35;;
70150;SDS011;57517;43.562;19.540;2023-05-14T01:03:06;11.07;;;7.22;;
70150;SDS011;57517;43.562;19.540;2023-05-14T01:05:38;10.82;;;6.60;;
70150;SDS011;57517;43.562;19.540;2023-05-14T01:11:24;10.85;;;6.95;;
70150;SDS011;57517;43.562;19.540;2023-05-14T01:14:00;9.80;;;7.10;;
70150;SDS011;57517;43.562;19.540;2023-05-14T01:16:34;11.70;;;6.47;;
70150;SDS011;57517;43.562;19.540;2023-05-14T01:19:04;18.35;;;7.78;;
70150;SDS011;57517;43.562;19.540;2023-05-14T01:21:35;9.20;;;5.93;;
70150;SDS011;57517;43.562;19.540;2023-05-14T01:24:02;11.60;;;7.25;;
70150;SDS011;57517;43.562;19.540;2023-05-14T01:26:28;9.80;;;5.93;;
70150;SDS011;57517;43.562;19.540;2023-05-14T01:28:57;8.63;;;6.30;;
70150;SDS011;57517;43.562;19.540;2023-05-14T01:31:33;10.55;;;6.90;;
70150;SDS011;57517;43.562;19.540;2023-05-14T01:34:03;8.63;;;6.60;;
70150;SDS011;57517;43.562;19.540;2023-05-14T01:36:30;9.07;;;6.25;;
70150;SDS011;57517;43.562;19.540;2023-05-14T01:38:57;10.15;;;6.47;;
70150;SDS011;57517;43.562;19.540;2023-05-14T01:41:25;15.30;;;7.03;;
70150;SDS011;57517;43.562;19.540;2023-05-14T01:43:51;10.18;;;7.53;;
70150;SDS011;57517;43.562;19.540;2023-05-14T01:46:18;10.45;;;8.05;;
70150;SDS011;57517;43.562;19.540;2023-05-14T01:48:44;12.60;;;9.00;;
70150;SDS011;57517;43.562;19.540;2023-05-14T01:51:10;11.55;;;7.78;;
70150;SDS011;57517;43.562;19.540;2023-05-14T01:53:38;10.13;;;6.75;;
70150;SDS011;57517;43.562;19.540;2023-05-14T01:56:04;8.60;;;6.72;;
70150;SDS011;57517;43.562;19.540;2023-05-14T01:58:30;10.15;;;6.68;;
70150;SDS011;57517;43.562;19.540;2023-05-14T02:00:56;9.68;;;7.07;;
70150;SDS011;57517;43.562;19.540;2023-05-14T02:03:22;10.73;;;8.20;;
70150;SDS011;57517;43.562;19.540;2023-05-14T02:05:47;9.57;;;7.32;;
70150;SDS011;57517;43.562;19.540;2023-05-14T02:08:13;14.02;;;8.20;;
70150;SDS011;57517;43.562;19.540;2023-05-14T02:10:39;11.93;;;8.38;;
70150;SDS011;57517;43.562;19.540;2023-05-14T02:13:05;10.57;;;6.95;;
70150;SDS011;57517;43.562;19.540;2023-05-14T02:15:31;10.27;;;7.65;;
70150;SDS011;57517;43.562;19.540;2023-05-14T02:17:56;9.70;;;7.60;;
70150;SDS011;57517;43.562;19.540;2023-05-14T02:20:22;8.82;;;6.55;;
70150;SDS011;57517;43.562;19.540;2023-05-14T02:22:48;10.50;;;7.03;;
70150;SDS011;57517;43.562;19.540;2023-05-14T02:25:14;8.80;;;6.93;;
70150;SDS011;57517;43.562;19.540;2023-05-14T02:27:40;12.27;;;6.70;;
70150;SDS011;57517;43.562;19.540;2023-05-14T02:30:06;11.57;;;7.80;;
70150;SDS011;57517;43.562;19.540;2023-05-14T02:32:32;10.07;;;7.22;;
70150;SDS011;57517;43.562;19.540;2023-05-14T02:34:58;12.88;;;7.93;;
70150;SDS011;57517;43.562;19.540;2023-05-14T02:37:24;9.40;;;6.93;;
70150;SDS011;57517;43.562;19.540;2023-05-14T02:39:50;9.65;;;7.78;;
70150;SDS011;57517;43.562;19.540;2023-05-14T02:42:16;10.80;;;7.75;;
70150;SDS011;57517;43.562;19.540;2023-05-14T02:44:42;12.40;;;9.05;;
70150;SDS011;57517;43.562;19.540;2023-05-14T02:47:07;13.82;;;10.82;;
70150;SDS011;57517;43.562;19.540;2023-05-14T02:49:33;16.13;;;11.88;;
70150;SDS011;57517;43.562;19.540;2023-05-14T02:51:59;17.67;;;12.57;;
70150;SDS011;57517;43.562;19.540;2023-05-14T02:54:25;17.27;;;11.95;;
70150;SDS011;57517;43.562;19.540;2023-05-14T02:56:50;24.10;;;15.70;;
70150;SDS011;57517;43.562;19.540;2023-05-14T02:59:16;29.38;;;19.00;;
70150;SDS011;57517;43.562;19.540;2023-05-14T03:01:42;22.15;;;15.18;;
70150;SDS011;57517;43.562;19.540;2023-05-14T03:04:08;20.58;;;15.48;;
70150;SDS011;57517;43.562;19.540;2023-05-14T03:06:34;18.80;;;13.20;;
70150;SDS011;57517;43.562;19.540;2023-05-14T03:08:59;11.98;;;8.95;;
70150;SDS011;57517;43.562;19.540;2023-05-14T03:11:25;15.02;;;9.73;;
70150;SDS011;57517;43.562;19.540;2023-05-14T03:13:51;15.63;;;9.95;;
70150;SDS011;57517;43.562;19.540;2023-05-14T03:16:17;14.10;;;10.25;;
70150;SDS011;57517;43.562;19.540;2023-05-14T03:18:43;13.75;;;9.15;;
70150;SDS011;57517;43.562;19.540;2023-05-14T03:21:08;12.73;;;9.85;;
70150;SDS011;57517;43.562;19.540;2023-05-14T03:23:34;10.63;;;7.72;;
70150;SDS011;57517;43.562;19.540;2023-05-14T03:26:00;11.73;;;7.65;;
70150;SDS011;57517;43.562;19.540;2023-05-14T03:28:26;11.80;;;8.63;;
70150;SDS011;57517;43.562;19.540;2023-05-14T03:30:52;11.60;;;7.90;;
70150;SDS011;57517;43.562;19.540;2023-05-14T03:33:17;12.05;;;7.70;;
70150;SDS011;57517;43.562;19.540;2023-05-14T03:35:43;12.80;;;9.18;;
70150;SDS011;57517;43.562;19.540;2023-05-14T03:38:09;10.70;;;9.55;;
70150;SDS011;57517;43.562;19.540;2023-05-14T03:40:35;12.38;;;8.90;;
70150;SDS011;57517;43.562;19.540;2023-05-14T03:43:01;12.63;;;8.75;;
70150;SDS011;57517;43.562;19.540;2023-05-14T03:45:26;11.45;;;8.52;;
70150;SDS011;57517;43.562;19.540;2023-05-14T03:47:54;10.57;;;7.68;;
70150;SDS011;57517;43.562;19.540;2023-05-14T03:50:20;11.05;;;7.03;;
70150;SDS011;57517;43.562;19.540;2023-05-14T03:52:46;10.52;;;7.68;;
70150;SDS011;57517;43.562;19.540;2023-05-14T03:55:12;11.85;;;8.02;;
70150;SDS011;57517;43.562;19.540;2023-05-14T03:57:39;10.65;;;7.55;;
70150;SDS011;57517;43.562;19.540;2023-05-14T04:00:05;9.93;;;7.63;;
70150;SDS011;57517;43.562;19.540;2023-05-14T04:02:31;11.20;;;7.70;;
70150;SDS011;57517;43.562;19.540;2023-05-14T04:04:57;13.52;;;9.15;;
70150;SDS011;57517;43.562;19.540;2023-05-14T04:07:22;11.85;;;8.55;;
70150;SDS011;57517;43.562;19.540;2023-05-14T04:09:48;9.63;;;7.40;;
70150;SDS011;57517;43.562;19.540;2023-05-14T04:12:14;8.55;;;6.72;;
70150;SDS011;57517;43.562;19.540;2023-05-14T04:14:40;10.45;;;7.45;;
70150;SDS011;57517;43.562;19.540;2023-05-14T04:17:05;16.75;;;13.98;;
70150;SDS011;57517;43.562;19.540;2023-05-14T04:19:31;34.25;;;28.85;;
70150;SDS011;57517;43.562;19.540;2023-05-14T04:21:57;40.40;;;32.35;;
70150;SDS011;57517;43.562;19.540;2023-05-14T04:24:22;38.20;;;31.17;;
70150;SDS011;57517;43.562;19.540;2023-05-14T04:26:48;40.67;;;33.53;;
70150;SDS011;57517;43.562;19.540;2023-05-14T04:29:14;45.30;;;36.90;;
70150;SDS011;57517;43.562;19.540;2023-05-14T04:31:40;27.02;;;21.67;;
70150;SDS011;57517;43.562;19.540;2023-05-14T04:34:07;16.90;;;14.32;;
70150;SDS011;57517;43.562;19.540;2023-05-14T04:36:32;18.70;;;14.15;;
70150;SDS011;57517;43.562;19.540;2023-05-14T04:38:58;14.55;;;12.82;;
70150;SDS011;57517;43.562;19.540;2023-05-14T04:41:24;14.25;;;11.18;;
70150;SDS011;57517;43.562;19.540;2023-05-14T04:43:50;14.38;;;12.02;;
70150;SDS011;57517;43.562;19.540;2023-05-14T04:46:19;14.88;;;11.63;;
70150;SDS011;57517;43.562;19.540;2023-05-14T04:48:45;16.10;;;12.77;;
70150;SDS011;57517;43.562;19.540;2023-05-14T04:51:11;14.43;;;11.25;;
70150;SDS011;57517;43.562;19.540;2023-05-14T04:53:36;15.93;;;10.98;;
70150;SDS011;57517;43.562;19.540;2023-05-14T04:56:02;16.70;;;10.63;;
70150;SDS011;57517;43.562;19.540;2023-05-14T04:58:28;12.65;;;10.40;;
70150;SDS011;57517;43.562;19.540;2023-05-14T05:00:56;13.10;;;10.35;;
70150;SDS011;57517;43.562;19.540;2023-05-14T05:03:23;13.02;;;9.63;;
70150;SDS011;57517;43.562;19.540;2023-05-14T05:05:49;11.50;;;9.07;;
70150;SDS011;57517;43.562;19.540;2023-05-14T05:08:15;13.02;;;9.70;;
70150;SDS011;57517;43.562;19.540;2023-05-14T05:10:41;14.02;;;9.40;;
70150;SDS011;57517;43.562;19.540;2023-05-14T05:13:07;12.68;;;10.30;;
70150;SDS011;57517;43.562;19.540;2023-05-14T05:15:33;14.23;;;11.85;;
70150;SDS011;57517;43.562;19.540;2023-05-14T05:17:59;19.33;;;13.05;;
70150;SDS011;57517;43.562;19.540;2023-05-14T05:20:24;31.75;;;21.10;;
70150;SDS011;57517;43.562;19.540;2023-05-14T05:22:52;38.05;;;24.65;;
70150;SDS011;57517;43.562;19.540;2023-05-14T05:25:17;29.10;;;21.67;;
70150;SDS011;57517;43.562;19.540;2023-05-14T05:27:43;36.00;;;25.83;;
70150;SDS011;57517;43.562;19.540;2023-05-14T05:30:09;37.20;;;26.45;;
70150;SDS011;57517;43.562;19.540;2023-05-14T05:32:36;40.72;;;30.95;;
70150;SDS011;57517;43.562;19.540;2023-05-14T05:35:01;63.42;;;43.72;;
70150;SDS011;57517;43.562;19.540;2023-05-14T05:37:29;70.47;;;49.13;;
70150;SDS011;57517;43.562;19.540;2023-05-14T05:39:55;77.30;;;52.80;;
70150;SDS011;57517;43.562;19.540;2023-05-14T05:42:20;54.55;;;38.25;;
70150;SDS011;57517;43.562;19.540;2023-05-14T05:44:46;27.25;;;21.27;;
70150;SDS011;57517;43.562;19.540;2023-05-14T05:47:12;25.65;;;20.48;;
70150;SDS011;57517;43.562;19.540;2023-05-14T05:49:38;24.55;;;17.50;;
70150;SDS011;57517;43.562;19.540;2023-05-14T05:52:03;27.45;;;19.27;;
70150;SDS011;57517;43.562;19.540;2023-05-14T05:54:29;55.53;;;40.65;;
70150;SDS011;57517;43.562;19.540;2023-05-14T05:56:58;52.72;;;38.10;;
70150;SDS011;57517;43.562;19.540;2023-05-14T05:59:24;26.67;;;20.17;;
70150;SDS011;57517;43.562;19.540;2023-05-14T06:01:50;23.67;;;15.75;;
70150;SDS011;57517;43.562;19.540;2023-05-14T06:04:15;26.48;;;17.00;;
70150;SDS011;57517;43.562;19.540;2023-05-14T06:06:41;32.85;;;20.27;;
70150;SDS011;57517;43.562;19.540;2023-05-14T06:09:07;61.97;;;38.42;;
70150;SDS011;57517;43.562;19.540;2023-05-14T06:11:33;58.88;;;36.53;;
70150;SDS011;57517;43.562;19.540;2023-05-14T06:14:00;49.70;;;36.65;;
70150;SDS011;57517;43.562;19.540;2023-05-14T06:16:26;58.95;;;45.03;;
70150;SDS011;57517;43.562;19.540;2023-05-14T06:18:52;42.78;;;31.90;;
70150;SDS011;57517;43.562;19.540;2023-05-14T06:21:19;60.85;;;46.00;;
70150;SDS011;57517;43.562;19.540;2023-05-14T06:23:45;48.03;;;35.60;;
70150;SDS011;57517;43.562;19.540;2023-05-14T06:26:11;19.38;;;15.02;;
70150;SDS011;57517;43.562;19.540;2023-05-14T06:28:37;55.33;;;40.28;;
70150;SDS011;57517;43.562;19.540;2023-05-14T06:31:02;114.18;;;81.88;;
70150;SDS011;57517;43.562;19.540;2023-05-14T06:33:28;59.35;;;46.70;;
70150;SDS011;57517;43.562;19.540;2023-05-14T06:36:04;67.53;;;46.17;;
70150;SDS011;57517;43.562;19.540;2023-05-14T06:38:31;46.88;;;34.65;;
70150;SDS011;57517;43.562;19.540;2023-05-14T06:40:57;27.17;;;20.55;;
70150;SDS011;57517;43.562;19.540;2023-05-14T06:43:23;22.05;;;16.90;;
70150;SDS011;57517;43.562;19.540;2023-05-14T06:45:52;15.82;;;11.02;;
70150;SDS011;57517;43.562;19.540;2023-05-14T06:48:18;19.52;;;14.57;;
70150;SDS011;57517;43.562;19.540;2023-05-14T06:50:44;11.60;;;9.70;;
70150;SDS011;57517;43.562;19.540;2023-05-14T06:53:12;16.52;;;13.68;;
70150;SDS011;57517;43.562;19.540;2023-05-14T06:55:38;16.42;;;12.68;;
70150;SDS011;57517;43.562;19.540;2023-05-14T06:58:06;14.65;;;11.40;;
70150;SDS011;57517;43.562;19.540;2023-05-14T07:00:33;18.08;;;14.73;;
70150;SDS011;57517;43.562;19.540;2023-05-14T07:02:59;21.52;;;17.88;;
70150;SDS011;57517;43.562;19.540;2023-05-14T07:05:25;15.07;;;12.63;;
70150;SDS011;57517;43.562;19.540;2023-05-14T07:07:51;14.98;;;11.80;;
70150;SDS011;57517;43.562;19.540;2023-05-14T07:10:16;14.60;;;11.93;;
70150;SDS011;57517;43.562;19.540;2023-05-14T07:12:42;13.95;;;11.85;;
70150;SDS011;57517;43.562;19.540;2023-05-14T07:15:08;15.13;;;11.80;;
70150;SDS011;57517;43.562;19.540;2023-05-14T07:17:34;29.77;;;19.52;;
70150;SDS011;57517;43.562;19.540;2023-05-14T07:20:00;35.97;;;22.70;;
70150;SDS011;57517;43.562;19.540;2023-05-14T07:22:26;31.23;;;23.08;;
70150;SDS011;57517;43.562;19.540;2023-05-14T07:24:51;23.40;;;19.00;;
70150;SDS011;57517;43.562;19.540;2023-05-14T07:27:17;19.27;;;15.45;;
70150;SDS011;57517;43.562;19.540;2023-05-14T07:29:43;57.33;;;43.35;;
70150;SDS011;57517;43.562;19.540;2023-05-14T07:32:09;74.60;;;59.40;;
70150;SDS011;57517;43.562;19.540;2023-05-14T07:34:34;52.05;;;40.35;;
70150;SDS011;57517;43.562;19.540;2023-05-14T07:37:01;21.13;;;18.23;;
70150;SDS011;57517;43.562;19.540;2023-05-14T07:39:27;55.13;;;45.92;;
70150;SDS011;57517;43.562;19.540;2023-05-14T07:41:52;46.63;;;40.83;;
70150;SDS011;57517;43.562;19.540;2023-05-14T07:44:21;20.38;;;17.33;;
70150;SDS011;57517;43.562;19.540;2023-05-14T07:46:47;22.55;;;20.38;;
70150;SDS011;57517;43.562;19.540;2023-05-14T07:49:13;11.88;;;9.02;;
70150;SDS011;57517;43.562;19.540;2023-05-14T07:51:38;14.25;;;11.05;;
70150;SDS011;57517;43.562;19.540;2023-05-14T07:54:04;14.82;;;12.48;;
70150;SDS011;57517;43.562;19.540;2023-05-14T07:56:30;15.73;;;14.13;;
70150;SDS011;57517;43.562;19.540;2023-05-14T07:58:56;12.10;;;10.80;;
70150;SDS011;57517;43.562;19.540;2023-05-14T08:01:21;13.68;;;10.82;;
70150;SDS011;57517;43.562;19.540;2023-05-14T08:03:47;20.38;;;15.82;;
70150;SDS011;57517;43.562;19.540;2023-05-14T08:06:13;29.88;;;20.55;;
70150;SDS011;57517;43.562;19.540;2023-05-14T08:08:39;27.75;;;19.13;;
70150;SDS011;57517;43.562;19.540;2023-05-14T08:11:05;24.50;;;19.50;;
70150;SDS011;57517;43.562;19.540;2023-05-14T08:13:30;18.10;;;14.10;;
70150;SDS011;57517;43.562;19.540;2023-05-14T08:15:56;18.90;;;16.17;;
70150;SDS011;57517;43.562;19.540;2023-05-14T08:18:22;15.50;;;11.90;;
70150;SDS011;57517;43.562;19.540;2023-05-14T08:20:48;23.80;;;20.02;;
70150;SDS011;57517;43.562;19.540;2023-05-14T08:23:14;20.40;;;16.83;;
70150;SDS011;57517;43.562;19.540;2023-05-14T08:25:39;8.70;;;6.40;;
70150;SDS011;57517;43.562;19.540;2023-05-14T08:28:06;9.48;;;5.93;;
70150;SDS011;57517;43.562;19.540;2023-05-14T08:30:32;8.27;;;4.90;;
70150;SDS011;57517;43.562;19.540;2023-05-14T08:32:58;7.40;;;2.97;;
70150;SDS011;57517;43.562;19.540;2023-05-14T08:35:24;10.32;;;3.05;;
70150;SDS011;57517;43.562;19.540;2023-05-14T08:37:49;5.57;;;2.60;;
70150;SDS011;57517;43.562;19.540;2023-05-14T08:40:16;7.00;;;2.70;;
70150;SDS011;57517;43.562;19.540;2023-05-14T08:42:42;5.20;;;2.30;;
70150;SDS011;57517;43.562;19.540;2023-05-14T08:47:40;7.05;;;2.70;;
70150;SDS011;57517;43.562;19.540;2023-05-14T08:50:08;7.03;;;2.63;;
70150;SDS011;57517;43.562;19.540;2023-05-14T08:52:34;6.15;;;2.53;;
70150;SDS011;57517;43.562;19.540;2023-05-14T08:55:02;5.28;;;2.53;;
70150;SDS011;57517;43.562;19.540;2023-05-14T08:57:29;8.15;;;2.90;;
70150;SDS011;57517;43.562;19.540;2023-05-14T08:59:56;5.40;;;2.40;;
70150;SDS011;57517;43.562;19.540;2023-05-14T09:02:23;6.18;;;2.70;;
70150;SDS011;57517;43.562;19.540;2023-05-14T09:04:55;6.43;;;2.45;;
70150;SDS011;57517;43.562;19.540;2023-05-14T09:07:25;6.68;;;2.45;;
70150;SDS011;57517;43.562;19.540;2023-05-14T09:09:51;6.40;;;2.50;;
70150;SDS011;57517;43.562;19.540;2023-05-14T09:12:18;7.63;;;2.75;;
70150;SDS011;57517;43.562;19.540;2023-05-14T09:14:44;7.28;;;2.70;;
70150;SDS011;57517;43.562;19.540;2023-05-14T09:17:12;9.52;;;4.10;;
70150;SDS011;57517;43.562;19.540;2023-05-14T09:19:41;4.53;;;2.60;;
70150;SDS011;57517;43.562;19.540;2023-05-14T09:22:08;6.90;;;3.17;;
70150;SDS011;57517;43.562;19.540;2023-05-14T09:24:36;5.72;;;2.85;;
70150;SDS011;57517;43.562;19.540;2023-05-14T09:27:03;7.97;;;3.85;;
70150;SDS011;57517;43.562;19.540;2023-05-14T09:29:29;11.98;;;4.45;;
70150;SDS011;57517;43.562;19.540;2023-05-14T09:31:56;7.20;;;3.67;;
70150;SDS011;57517;43.562;19.540;2023-05-14T09:34:24;9.20;;;2.92;;
70150;SDS011;57517;43.562;19.540;2023-05-14T09:36:58;9.77;;;3.47;;
70150;SDS011;57517;43.562;19.540;2023-05-14T09:39:26;8.63;;;3.22;;
70150;SDS011;57517;43.562;19.540;2023-05-14T09:41:53;7.00;;;2.95;;
70150;SDS011;57517;43.562;19.540;2023-05-14T09:44:19;8.32;;;4.78;;
70150;SDS011;57517;43.562;19.540;2023-05-14T09:46:46;8.48;;;3.10;;
70150;SDS011;57517;43.562;19.540;2023-05-14T09:49:12;8.45;;;2.92;;
70150;SDS011;57517;43.562;19.540;2023-05-14T09:51:39;9.20;;;3.22;;
70150;SDS011;57517;43.562;19.540;2023-05-14T09:54:05;9.80;;;3.40;;
70150;SDS011;57517;43.562;19.540;2023-05-14T09:56:32;10.55;;;3.60;;
70150;SDS011;57517;43.562;19.540;2023-05-14T09:58:58;7.88;;;3.63;;
70150;SDS011;57517;43.562;19.540;2023-05-14T10:01:24;8.43;;;3.53;;
70150;SDS011;57517;43.562;19.540;2023-05-14T10:03:52;6.53;;;3.58;;
70150;SDS011;57517;43.562;19.540;2023-05-14T10:06:20;8.73;;;3.85;;
70150;SDS011;57517;43.562;19.540;2023-05-14T10:08:55;12.02;;;3.95;;
70150;SDS011;57517;43.562;19.540;2023-05-14T10:11:24;11.45;;;3.55;;
70150;SDS011;57517;43.562;19.540;2023-05-14T10:13:54;6.60;;;3.78;;
70150;SDS011;57517;43.562;19.540;2023-05-14T10:16:36;8.63;;;5.00;;
70150;SDS011;57517;43.562;19.540;2023-05-14T10:19:08;10.82;;;3.92;;
70150;SDS011;57517;43.562;19.540;2023-05-14T10:21:36;8.82;;;3.58;;
70150;SDS011;57517;43.562;19.540;2023-05-14T10:24:03;9.60;;;4.43;;
70150;SDS011;57517;43.562;19.540;2023-05-14T10:26:33;11.60;;;4.00;;
70150;SDS011;57517;43.562;19.540;2023-05-14T10:29:04;8.73;;;3.78;;
70150;SDS011;57517;43.562;19.540;2023-05-14T10:32:31;8.98;;;3.53;;
70150;SDS011;57517;43.562;19.540;2023-05-14T10:34:33;8.25;;;3.45;;
70150;SDS011;57517;43.562;19.540;2023-05-14T10:37:05;9.95;;;4.25;;
70150;SDS011;57517;43.562;19.540;2023-05-14T10:40:18;11.35;;;4.68;;
70150;SDS011;57517;43.562;19.540;2023-05-14T10:42:24;12.77;;;4.75;;
70150;SDS011;57517;43.562;19.540;2023-05-14T10:47:22;8.98;;;3.78;;
70150;SDS011;57517;43.562;19.540;2023-05-14T10:49:52;7.07;;;3.25;;
70150;SDS011;57517;43.562;19.540;2023-05-14T10:52:20;12.93;;;4.15;;
70150;SDS011;57517;43.562;19.540;2023-05-14T10:57:18;10.23;;;4.18;;
70150;SDS011;57517;43.562;19.540;2023-05-14T10:59:47;11.48;;;4.47;;
70150;SDS011;57517;43.562;19.540;2023-05-14T11:02:47;13.05;;;5.28;;
70150;SDS011;57517;43.562;19.540;2023-05-14T11:05:10;14.10;;;4.82;;
70150;SDS011;57517;43.562;19.540;2023-05-14T11:07:42;9.55;;;3.72;;
70150;SDS011;57517;43.562;19.540;2023-05-14T11:10:10;6.80;;;3.75;;
70150;SDS011;57517;43.562;19.540;2023-05-14T11:12:40;12.15;;;4.57;;
70150;SDS011;57517;43.562;19.540;2023-05-14T11:15:09;12.75;;;6.43;;
70150;SDS011;57517;43.562;19.540;2023-05-14T11:17:37;10.40;;;5.82;;
70150;SDS011;57517;43.562;19.540;2023-05-14T11:20:04;17.60;;;8.40;;
70150;SDS011;57517;43.562;19.540;2023-05-14T11:22:33;16.42;;;10.80;;
70150;SDS011;57517;43.562;19.540;2023-05-14T11:25:00;19.25;;;9.48;;
70150;SDS011;57517;43.562;19.540;2023-05-14T11:27:26;15.23;;;9.45;;
70150;SDS011;57517;43.562;19.540;2023-05-14T11:29:51;18.52;;;10.88;;
70150;SDS011;57517;43.562;19.540;2023-05-14T11:32:19;17.20;;;9.02;;
70150;SDS011;57517;43.562;19.540;2023-05-14T11:34:45;16.20;;;11.45;;
70150;SDS011;57517;43.562;19.540;2023-05-14T11:37:12;18.27;;;10.93;;
70150;SDS011;57517;43.562;19.540;2023-05-14T11:39:49;18.80;;;12.48;;
70150;SDS011;57517;43.562;19.540;2023-05-14T11:42:17;19.33;;;12.73;;
70150;SDS011;57517;43.562;19.540;2023-05-14T11:44:47;17.00;;;11.30;;
70150;SDS011;57517;43.562;19.540;2023-05-14T11:47:17;16.58;;;9.55;;
70150;SDS011;57517;43.562;19.540;2023-05-14T11:49:44;10.55;;;5.22;;
70150;SDS011;57517;43.562;19.540;2023-05-14T11:52:10;9.13;;;4.15;;
70150;SDS011;57517;43.562;19.540;2023-05-14T11:54:43;8.20;;;3.90;;
70150;SDS011;57517;43.562;19.540;2023-05-14T11:57:14;8.80;;;3.55;;
70150;SDS011;57517;43.562;19.540;2023-05-14T11:59:42;7.22;;;3.70;;
70150;SDS011;57517;43.562;19.540;2023-05-14T12:02:11;10.65;;;4.10;;
70150;SDS011;57517;43.562;19.540;2023-05-14T12:04:38;12.85;;;3.63;;
70150;SDS011;57517;43.562;19.540;2023-05-14T12:07:09;15.10;;;4.82;;
70150;SDS011;57517;43.562;19.540;2023-05-14T12:09:36;8.85;;;3.47;;
70150;SDS011;57517;43.562;19.540;2023-05-14T12:12:08;13.80;;;4.57;;
70150;SDS011;57517;43.562;19.540;2023-05-14T12:14:40;12.25;;;4.32;;
70150;SDS011;57517;43.562;19.540;2023-05-14T12:17:22;10.68;;;4.50;;
70150;SDS011;57517;43.562;19.540;2023-05-14T12:19:49;11.55;;;3.85;;
70150;SDS011;57517;43.562;19.540;2023-05-14T12:22:16;11.95;;;3.85;;
70150;SDS011;57517;43.562;19.540;2023-05-14T12:24:51;10.95;;;4.45;;
70150;SDS011;57517;43.562;19.540;2023-05-14T12:27:20;9.90;;;3.90;;
70150;SDS011;57517;43.562;19.540;2023-05-14T12:29:57;10.77;;;4.40;;
70150;SDS011;57517;43.562;19.540;2023-05-14T12:32:24;15.80;;;6.07;;
70150;SDS011;57517;43.562;19.540;2023-05-14T12:34:50;11.80;;;5.13;;
70150;SDS011;57517;43.562;19.540;2023-05-14T12:37:16;10.13;;;4.43;;
70150;SDS011;57517;43.562;19.540;2023-05-14T12:39:42;10.27;;;5.45;;
70150;SDS011;57517;43.562;19.540;2023-05-14T12:42:08;8.93;;;4.07;;
70150;SDS011;57517;43.562;19.540;2023-05-14T12:44:34;12.35;;;5.40;;
70150;SDS011;57517;43.562;19.540;2023-05-14T12:46:59;11.05;;;4.30;;
70150;SDS011;57517;43.562;19.540;2023-05-14T12:49:25;12.80;;;4.28;;
70150;SDS011;57517;43.562;19.540;2023-05-14T12:51:52;8.73;;;4.25;;
70150;SDS011;57517;43.562;19.540;2023-05-14T12:54:17;11.38;;;4.22;;
70150;SDS011;57517;43.562;19.540;2023-05-14T12:56:43;10.80;;;5.47;;
70150;SDS011;57517;43.562;19.540;2023-05-14T12:59:09;8.63;;;4.32;;
70150;SDS011;57517;43.562;19.540;2023-05-14T13:01:35;9.07;;;3.55;;
70150;SDS011;57517;43.562;19.540;2023-05-14T13:04:02;6.22;;;3.88;;
70150;SDS011;57517;43.562;19.540;2023-05-14T13:06:29;9.82;;;4.68;;
70150;SDS011;57517;43.562;19.540;2023-05-14T13:08:55;13.77;;;4.93;;
70150;SDS011;57517;43.562;19.540;2023-05-14T13:11:23;10.93;;;5.10;;
70150;SDS011;57517;43.562;19.540;2023-05-14T13:13:51;12.68;;;6.35;;
70150;SDS011;57517;43.562;19.540;2023-05-14T13:16:16;12.48;;;6.25;;
70150;SDS011;57517;43.562;19.540;2023-05-14T13:18:42;11.20;;;5.10;;
70150;SDS011;57517;43.562;19.540;2023-05-14T13:21:08;13.68;;;6.78;;
70150;SDS011;57517;43.562;19.540;2023-05-14T13:23:34;9.48;;;5.05;;
70150;SDS011;57517;43.562;19.540;2023-05-14T13:25:59;14.40;;;5.70;;
70150;SDS011;57517;43.562;19.540;2023-05-14T13:28:25;13.90;;;5.65;;
70150;SDS011;57517;43.562;19.540;2023-05-14T13:31:04;10.40;;;5.10;;
70150;SDS011;57517;43.562;19.540;2023-05-14T13:33:35;9.90;;;4.47;;
70150;SDS011;57517;43.562;19.540;2023-05-14T13:36:04;10.70;;;4.57;;
70150;SDS011;57517;43.562;19.540;2023-05-14T13:38:30;10.77;;;5.30;;
70150;SDS011;57517;43.562;19.540;2023-05-14T13:40:56;13.30;;;5.22;;
70150;SDS011;57517;43.562;19.540;2023-05-14T13:43:25;13.27;;;5.65;;
70150;SDS011;57517;43.562;19.540;2023-05-14T13:45:52;14.90;;;6.05;;
70150;SDS011;57517;43.562;19.540;2023-05-14T13:48:19;13.27;;;4.97;;
70150;SDS011;57517;43.562;19.540;2023-05-14T13:50:45;14.05;;;5.88;;
70150;SDS011;57517;43.562;19.540;2023-05-14T13:53:11;16.02;;;5.65;;
70150;SDS011;57517;43.562;19.540;2023-05-14T13:55:36;12.73;;;5.90;;
70150;SDS011;57517;43.562;19.540;2023-05-14T13:58:02;12.45;;;5.63;;
70150;SDS011;57517;43.562;19.540;2023-05-14T14:00:28;12.77;;;4.82;;
70150;SDS011;57517;43.562;19.540;2023-05-14T14:02:54;13.02;;;5.43;;
70150;SDS011;57517;43.562;19.540;2023-05-14T14:05:20;10.98;;;5.25;;
70150;SDS011;57517;43.562;19.540;2023-05-14T14:07:46;12.85;;;5.68;;
70150;SDS011;57517;43.562;19.540;2023-05-14T14:10:12;17.42;;;6.55;;
70150;SDS011;57517;43.562;19.540;2023-05-14T14:12:38;13.70;;;4.72;;
70150;SDS011;57517;43.562;19.540;2023-05-14T14:15:04;15.23;;;5.68;;
70150;SDS011;57517;43.562;19.540;2023-05-14T14:17:30;15.27;;;5.95;;
70150;SDS011;57517;43.562;19.540;2023-05-14T14:19:57;14.40;;;5.38;;
70150;SDS011;57517;43.562;19.540;2023-05-14T14:22:23;19.40;;;6.10;;
70150;SDS011;57517;43.562;19.540;2023-05-14T14:24:49;17.17;;;6.22;;
70150;SDS011;57517;43.562;19.540;2023-05-14T14:27:15;14.60;;;6.18;;
70150;SDS011;57517;43.562;19.540;2023-05-14T14:29:40;13.77;;;6.13;;
70150;SDS011;57517;43.562;19.540;2023-05-14T14:32:06;12.68;;;5.57;;